createdAt,value
2018-11-01T00:01:49.000Z,1005.244
2018-11-01T00:11:49.000Z,1005.226
2018-11-01T00:21:49.000Z,1005.096
2018-11-01T00:41:49.000Z,1005.024
2018-11-01T00:51:49.000Z,1005.035
2018-11-01T01:01:49.000Z,1005.049
2018-11-01T01:11:49.000Z,1004.974
2018-11-01T01:21:49.000Z,1004.92
2018-11-01T01:31:49.000Z,1004.802
2018-11-01T01:41:49.000Z,1004.678
2018-11-01T01:51:49.000Z,1004.7
2018-11-01T02:01:49.000Z,1004.7
2018-11-01T02:11:49.000Z,1004.627
2018-11-01T02:21:49.000Z,1004.478
2018-11-01T02:31:49.000Z,1004.433
2018-11-01T02:41:49.000Z,1004.384
2018-11-01T02:51:49.000Z,1004.383
2018-11-01T03:01:49.000Z,1004.227
2018-11-01T03:11:49.000Z,1004.1
2018-11-01T03:21:49.000Z,1003.976
2018-11-01T03:31:49.000Z,1003.899
2018-11-01T03:41:49.000Z,1003.876
2018-11-01T03:51:49.000Z,1003.837
2018-11-01T04:01:49.000Z,1003.637
2018-11-01T04:11:49.000Z,1003.686
2018-11-01T04:21:49.000Z,1003.577
2018-11-01T04:31:49.000Z,1003.465
2018-11-01T04:51:50.000Z,1003.264
2018-11-01T05:01:50.000Z,1003.236
2018-11-01T05:11:50.000Z,1003.284
2018-11-01T05:21:50.000Z,1003.425
2018-11-01T05:31:50.000Z,1003.403
2018-11-01T05:41:50.000Z,1003.565
2018-11-01T05:51:50.000Z,1003.602
2018-11-01T06:01:50.000Z,1003.34
2018-11-01T06:11:50.000Z,1003.436
2018-11-01T06:21:52.000Z,1003.385
2018-11-01T06:31:50.000Z,1003.725
2018-11-01T06:41:50.000Z,1003.83
2018-11-01T06:51:50.000Z,1003.889
2018-11-01T07:01:50.000Z,1003.915
2018-11-01T07:11:50.000Z,1003.832
2018-11-01T07:21:50.000Z,1003.77
2018-11-01T07:31:50.000Z,1003.593
2018-11-01T07:41:50.000Z,1003.325
2018-11-01T07:51:50.000Z,1003.198
2018-11-01T08:01:50.000Z,1003.167
2018-11-01T08:11:50.000Z,1003.126
2018-11-01T08:21:50.000Z,1003.091
2018-11-01T08:31:50.000Z,1003.039
2018-11-01T08:41:50.000Z,1003.123
2018-11-01T08:51:50.000Z,1003.099
2018-11-01T09:01:50.000Z,1003.075
2018-11-01T09:11:50.000Z,1003
2018-11-01T09:21:50.000Z,1002.986
2018-11-01T09:31:50.000Z,1002.937
2018-11-01T09:41:50.000Z,1002.864
2018-11-01T09:51:50.000Z,1002.791
2018-11-01T10:01:50.000Z,1002.855
2018-11-01T10:11:50.000Z,1002.823
2018-11-01T10:21:50.000Z,1002.779
2018-11-01T10:31:50.000Z,1002.711
2018-11-01T10:41:50.000Z,1002.76
2018-11-01T10:51:50.000Z,1002.54
2018-11-01T11:01:50.000Z,1002.6
2018-11-01T11:11:50.000Z,1002.485
2018-11-01T11:21:50.000Z,1002.432
2018-11-01T11:31:50.000Z,1002.493
2018-11-01T11:41:50.000Z,1002.271
2018-11-01T11:51:51.000Z,1002.294
2018-11-01T12:01:50.000Z,1002.046
2018-11-01T12:11:50.000Z,1001.791
2018-11-01T12:21:50.000Z,1001.855
2018-11-01T12:31:50.000Z,1001.649
2018-11-01T12:41:51.000Z,1001.459
2018-11-01T12:51:51.000Z,1001.475
2018-11-01T13:01:51.000Z,1001.625
2018-11-01T13:11:51.000Z,1001.843
2018-11-01T13:21:51.000Z,1001.83
2018-11-01T13:31:51.000Z,1001.912
2018-11-01T13:41:51.000Z,1001.97
2018-11-01T13:51:51.000Z,1002.106
2018-11-01T14:01:51.000Z,1002.062
2018-11-01T14:11:51.000Z,1002.394
2018-11-01T14:21:51.000Z,1002.322
2018-11-01T14:31:51.000Z,1002.317
2018-11-01T14:41:51.000Z,1002.226
2018-11-01T14:51:51.000Z,1002.222
2018-11-01T15:01:55.000Z,1002.216
2018-11-01T15:11:51.000Z,1002.276
2018-11-01T15:21:51.000Z,1002.272
2018-11-01T15:31:55.000Z,1002.314
2018-11-01T15:41:51.000Z,1002.336
2018-11-01T15:51:51.000Z,1002.381
2018-11-01T16:01:51.000Z,1002.523
2018-11-01T16:11:51.000Z,1002.487
2018-11-01T16:21:51.000Z,1002.647
2018-11-01T16:31:51.000Z,1002.765
2018-11-01T16:41:54.000Z,1002.807
2018-11-01T16:51:51.000Z,1002.856
2018-11-01T17:01:51.000Z,1002.824
2018-11-01T17:11:53.000Z,1002.786
2018-11-01T17:21:51.000Z,1002.887
2018-11-01T17:31:51.000Z,1002.906
2018-11-01T17:41:51.000Z,1002.792
2018-11-01T17:51:51.000Z,1002.745
2018-11-01T18:01:51.000Z,1002.681
2018-11-01T18:11:51.000Z,1002.651
2018-11-01T18:21:51.000Z,1002.615
2018-11-01T18:31:51.000Z,1002.55
2018-11-01T18:41:51.000Z,1002.53
2018-11-01T18:51:51.000Z,1002.826
2018-11-01T19:01:51.000Z,1002.868
2018-11-01T19:11:51.000Z,1003.081
2018-11-01T19:21:51.000Z,1003.224
2018-11-01T19:31:51.000Z,1003.2
2018-11-01T19:41:51.000Z,1003.231
2018-11-01T19:51:51.000Z,1003.225
2018-11-01T20:01:51.000Z,1003.376
2018-11-01T20:11:51.000Z,1003.267
2018-11-01T20:21:51.000Z,1003.29
2018-11-01T20:31:51.000Z,1003.316
2018-11-01T20:41:51.000Z,1003.305
2018-11-01T20:51:51.000Z,1003.43
2018-11-01T21:01:52.000Z,1003.411
2018-11-01T21:11:52.000Z,1003.475
2018-11-01T21:21:52.000Z,1003.526
2018-11-01T21:31:52.000Z,1003.509
2018-11-01T21:41:54.000Z,1003.582
2018-11-01T21:51:52.000Z,1003.599
2018-11-01T22:01:52.000Z,1003.439
2018-11-01T22:11:52.000Z,1003.349
2018-11-01T22:21:52.000Z,1003.48
2018-11-01T22:31:52.000Z,1003.508
2018-11-01T22:41:52.000Z,1003.499
2018-11-01T22:51:52.000Z,1003.555
2018-11-01T23:01:52.000Z,1003.567
2018-11-01T23:11:52.000Z,1003.663
2018-11-01T23:21:52.000Z,1003.778
2018-11-01T23:31:52.000Z,1003.828
2018-11-01T23:41:52.000Z,1003.862
2018-11-01T23:51:52.000Z,1003.907
